Time;durP1;ratioP1;P1;durP2;ratioP2;P2;SDS_P1;SDS_P2;PMS_P1;PMS_P2;Temp;Humidity;BMP_temperature;BMP_pressure;BME280_temperature;BME280_humidity;BME280_pressure;Samples;Min_cycle;Max_cycle;Signal;HPM_P1;HPM_P2
2023/08/07 00:01:14;;;;;;;3.83;1.65;;;14.30;99.90;;;;;;5072473;28;20038;-41
2023/08/07 00:03:39;;;;;;;4.38;1.63;;;14.30;99.90;;;;;;5071530;28;20125;-42
2023/08/07 00:06:05;;;;;;;4.05;1.70;;;14.30;99.90;;;;;;5069922;28;20745;-42
2023/08/07 00:08:31;;;;;;;2.53;1.40;;;14.30;99.90;;;;;;5074032;28;20031;-42
2023/08/07 00:11:10;;;;;;;4.93;1.63;;;14.30;99.90;;;;;;5067168;28;20536;-42
2023/08/07 00:13:35;;;;;;;2.55;1.20;;;14.20;99.90;;;;;;5075076;28;20122;-42
2023/08/07 00:16:01;;;;;;;1.95;1.08;;;14.30;99.90;;;;;;5067268;28;20452;-43
2023/08/07 00:18:28;;;;;;;2.95;1.10;;;14.20;99.90;;;;;;5076700;28;20032;-42
2023/08/07 00:20:53;;;;;;;2.20;1.00;;;14.30;99.90;;;;;;5067441;28;20029;-42
2023/08/07 00:23:19;;;;;;;2.00;0.90;;;14.20;99.90;;;;;;5076472;28;20036;-42
2023/08/07 00:25:45;;;;;;;3.83;1.50;;;14.20;99.90;;;;;;5065142;28;20032;-42
2023/08/07 00:28:10;;;;;;;3.25;1.00;;;14.20;99.90;;;;;;5077872;28;20017;-42
2023/08/07 00:30:36;;;;;;;3.42;0.90;;;14.20;99.90;;;;;;5065059;28;20028;-42
2023/08/07 00:33:01;;;;;;;2.25;0.90;;;14.10;99.90;;;;;;5078056;28;20028;-42
2023/08/07 00:35:27;;;;;;;2.25;1.30;;;14.20;99.90;;;;;;5065589;28;20483;-41
2023/08/07 00:37:52;;;;;;;4.22;1.13;;;14.20;99.90;;;;;;5076090;28;20081;-42
2023/08/07 00:40:18;;;;;;;1.77;0.93;;;14.10;99.90;;;;;;5067219;28;20447;-42
2023/08/07 00:42:44;;;;;;;3.70;1.20;;;14.10;99.90;;;;;;5073412;28;20044;-42
2023/08/07 00:45:10;;;;;;;4.25;1.30;;;14.20;99.90;;;;;;5073542;28;20032;-45
2023/08/07 00:47:37;;;;;;;2.13;0.90;;;14.20;99.90;;;;;;5079560;28;20032;-43
2023/08/07 00:50:04;;;;;;;5.65;1.20;;;14.20;99.90;;;;;;5078256;28;20545;-42
2023/08/07 00:52:32;;;;;;;1.88;1.08;;;14.20;99.90;;;;;;5081423;28;20132;-42
2023/08/07 00:54:57;;;;;;;3.85;1.73;;;14.10;99.90;;;;;;5076928;28;20024;-42
2023/08/07 00:57:32;;;;;;;2.30;0.93;;;14.10;99.90;;;;;;5083770;28;20027;-42
2023/08/07 00:59:59;;;;;;;4.93;1.40;;;14.10;99.90;;;;;;5074322;28;20028;-42
2023/08/07 01:02:25;;;;;;;4.53;1.38;;;14.10;99.90;;;;;;5084181;28;20514;-42
2023/08/07 01:04:51;;;;;;;5.82;1.73;;;14.10;99.90;;;;;;5073697;28;20138;-42
2023/08/07 01:07:19;;;;;;;4.57;1.42;;;14.00;99.90;;;;;;5082480;28;20032;-41
2023/08/07 01:09:45;;;;;;;3.65;1.35;;;14.10;99.90;;;;;;5076594;28;20827;-43
2023/08/07 01:12:22;;;;;;;5.32;1.60;;;14.10;99.90;;;;;;5064138;28;20041;-41
2023/08/07 01:15:20;;;;;;;4.18;1.45;;;14.00;99.90;;;;;;5079242;28;20052;-42
2023/08/07 01:17:46;;;;;;;3.72;1.30;;;14.00;99.90;;;;;;5031832;28;20064;-42
2023/08/07 01:20:13;;;;;;;5.97;1.67;;;14.00;99.90;;;;;;5075106;28;20454;-42
2023/08/07 01:22:38;;;;;;;3.78;1.35;;;14.00;99.90;;;;;;5064896;28;20433;-42
2023/08/07 01:25:07;;;;;;;4.65;1.73;;;14.00;99.90;;;;;;5076478;28;20024;-42
2023/08/07 01:28:01;;;;;;;5.07;1.63;;;14.00;99.90;;;;;;5064191;28;20115;-42
2023/08/07 01:30:50;;;;;;;5.00;1.75;;;14.00;99.90;;;;;;5075709;28;20047;-42
2023/08/07 01:33:24;;;;;;;3.42;1.30;;;14.00;99.90;;;;;;5065501;28;20448;-42
2023/08/07 01:35:55;;;;;;;4.70;1.58;;;14.10;99.90;;;;;;5075273;28;20017;-42
2023/08/07 01:38:25;;;;;;;7.10;1.92;;;14.10;99.90;;;;;;5064343;28;20127;-42
2023/08/07 01:40:52;;;;;;;5.03;1.80;;;14.10;99.90;;;;;;5075553;28;20043;-42
2023/08/07 01:43:19;;;;;;;8.23;2.10;;;14.00;99.90;;;;;;5064110;28;20078;-41
2023/08/07 01:45:45;;;;;;;8.80;2.40;;;14.10;99.90;;;;;;5078009;28;20034;-41
2023/08/07 01:48:11;;;;;;;4.40;1.65;;;14.00;99.90;;;;;;5083325;28;20079;-41
2023/08/07 01:50:38;;;;;;;5.63;1.83;;;14.10;99.90;;;;;;5071747;28;20484;-42
2023/08/07 01:53:03;;;;;;;6.00;1.90;;;14.10;99.90;;;;;;5084414;28;20101;-42
2023/08/07 01:55:29;;;;;;;6.55;2.08;;;14.10;99.90;;;;;;5071812;28;20029;-42
2023/08/07 01:57:55;;;;;;;6.97;2.40;;;14.10;99.90;;;;;;5083336;28;20784;-42
2023/08/07 02:00:20;;;;;;;7.55;2.13;;;14.10;99.90;;;;;;5074702;28;20013;-42
2023/08/07 02:02:46;;;;;;;7.40;2.10;;;14.10;99.90;;;;;;5079826;28;20034;-42
2023/08/07 02:05:13;;;;;;;3.90;1.90;;;14.10;99.90;;;;;;5077295;28;20039;-43
2023/08/07 02:07:39;;;;;;;6.18;2.08;;;14.20;99.90;;;;;;5078185;28;20023;-43
2023/08/07 02:10:08;;;;;;;5.60;1.90;;;14.20;99.90;;;;;;5079844;28;20428;-42
2023/08/07 02:12:33;;;;;;;6.35;2.42;;;14.20;99.90;;;;;;5075802;28;20759;-43
2023/08/07 02:15:02;;;;;;;7.32;2.10;;;14.10;99.90;;;;;;5083016;28;20015;-42
2023/08/07 02:17:30;;;;;;;5.38;2.20;;;14.20;99.90;;;;;;5072267;28;20368;-42
2023/08/07 02:19:56;;;;;;;4.82;2.17;;;14.20;99.90;;;;;;5082391;28;20480;-43
2023/08/07 02:22:21;;;;;;;7.55;2.42;;;14.20;99.90;;;;;;5072872;28;20043;-42
2023/08/07 02:24:50;;;;;;;6.63;2.72;;;14.30;99.90;;;;;;5083332;28;20761;-43
2023/08/07 02:27:15;;;;;;;5.38;1.75;;;14.20;99.90;;;;;;5072172;28;20032;-43
2023/08/07 02:29:41;;;;;;;6.55;1.80;;;14.20;99.90;;;;;;5084554;28;20073;-43
2023/08/07 02:32:07;;;;;;;5.05;2.25;;;14.20;99.90;;;;;;5070251;28;20064;-43
2023/08/07 02:34:35;;;;;;;5.75;1.98;;;14.30;99.90;;;;;;5084618;28;20084;-43
2023/08/07 02:37:04;;;;;;;7.65;2.10;;;14.30;99.90;;;;;;5071595;28;20388;-43
2023/08/07 02:39:32;;;;;;;7.47;2.30;;;14.30;99.90;;;;;;5063548;28;20036;-43
2023/08/07 02:41:58;;;;;;;5.25;2.20;;;14.40;99.90;;;;;;5073837;28;20028;-44
2023/08/07 02:44:23;;;;;;;5.75;1.90;;;14.40;99.90;;;;;;5064597;28;20090;-42
2023/08/07 02:46:49;;;;;;;5.80;2.70;;;14.40;99.90;;;;;;5073067;28;20025;-42
2023/08/07 02:49:14;;;;;;;4.03;1.70;;;14.40;99.90;;;;;;5078165;28;20052;-43
2023/08/07 02:51:40;;;;;;;4.30;1.80;;;14.40;99.90;;;;;;5077928;28;20044;-42
2023/08/07 02:54:06;;;;;;;4.40;1.70;;;14.40;99.90;;;;;;5076396;28;20089;-42
2023/08/07 02:56:32;;;;;;;6.68;2.38;;;14.40;99.90;;;;;;5081259;28;20051;-42
2023/08/07 02:58:59;;;;;;;6.07;2.30;;;14.30;99.90;;;;;;5073179;28;20034;-43
2023/08/07 03:01:27;;;;;;;5.25;2.13;;;14.30;99.90;;;;;;5081074;28;20071;-43
2023/08/07 03:03:53;;;;;;;5.90;2.20;;;14.30;99.90;;;;;;5072477;28;20043;-43
2023/08/07 03:06:18;;;;;;;3.63;1.83;;;14.30;99.90;;;;;;5082317;28;20783;-43
2023/08/07 03:08:44;;;;;;;7.70;2.83;;;14.30;99.90;;;;;;5076325;28;20085;-42
2023/08/07 03:11:10;;;;;;;5.93;2.40;;;14.30;99.90;;;;;;5087460;28;20040;-43
2023/08/07 03:13:35;;;;;;;4.78;2.00;;;14.20;99.90;;;;;;5074108;28;20028;-43
2023/08/07 03:16:03;;;;;;;5.65;2.10;;;14.20;99.90;;;;;;5087361;28;20467;-43
2023/08/07 03:18:29;;;;;;;6.13;2.03;;;14.20;99.90;;;;;;5074509;28;20021;-43
2023/08/07 03:20:58;;;;;;;4.53;1.90;;;14.20;99.90;;;;;;5087276;28;20050;-43
2023/08/07 03:23:24;;;;;;;4.85;2.20;;;14.20;99.90;;;;;;5075876;28;20519;-43
2023/08/07 03:25:51;;;;;;;10.05;2.72;;;14.20;99.90;;;;;;5085117;28;20028;-42
2023/08/07 03:28:17;;;;;;;4.35;2.17;;;14.20;99.90;;;;;;5077170;28;20021;-42
2023/08/07 03:30:45;;;;;;;7.35;2.10;;;14.20;99.90;;;;;;5083508;28;20047;-42
2023/08/07 03:33:11;;;;;;;4.50;1.92;;;14.20;99.90;;;;;;5080282;28;20485;-43
2023/08/07 03:35:36;;;;;;;6.80;2.50;;;14.20;99.90;;;;;;5070381;28;20048;-43
2023/08/07 03:38:02;;;;;;;5.80;2.22;;;14.20;99.90;;;;;;5070301;28;20467;-42
2023/08/07 03:40:27;;;;;;;5.22;2.00;;;14.10;99.90;;;;;;5074974;28;20024;-42
2023/08/07 03:42:53;;;;;;;3.45;1.55;;;14.10;99.90;;;;;;5068671;28;20021;-41
2023/08/07 03:45:18;;;;;;;3.85;1.92;;;14.10;99.90;;;;;;5081100;28;20028;-42
2023/08/07 03:47:44;;;;;;;3.85;1.60;;;14.10;99.90;;;;;;5084221;28;20074;-42
2023/08/07 03:50:10;;;;;;;4.60;1.52;;;14.10;99.90;;;;;;5074683;28;20044;-42
2023/08/07 03:52:35;;;;;;;6.97;2.38;;;14.10;99.90;;;;;;5086964;28;20039;-41
2023/08/07 03:55:01;;;;;;;6.47;2.35;;;14.10;99.90;;;;;;5072086;28;20016;-42
2023/08/07 03:57:27;;;;;;;7.60;2.53;;;14.10;99.90;;;;;;5086152;28;20043;-41
2023/08/07 03:59:54;;;;;;;5.72;2.75;;;14.20;99.90;;;;;;5073946;28;20625;-42
2023/08/07 04:02:19;;;;;;;5.63;2.15;;;14.20;99.90;;;;;;5085011;28;20558;-42
2023/08/07 04:04:45;;;;;;;6.13;1.80;;;14.10;99.90;;;;;;5075731;28;20039;-42
2023/08/07 04:07:10;;;;;;;6.25;1.85;;;14.20;99.90;;;;;;5084419;28;20138;-42
2023/08/07 04:09:36;;;;;;;4.22;2.00;;;14.20;99.90;;;;;;5077679;28;20021;-42
2023/08/07 04:12:02;;;;;;;3.78;1.77;;;14.20;99.90;;;;;;5081487;28;20032;-42
2023/08/07 04:14:30;;;;;;;6.47;1.98;;;14.20;99.90;;;;;;5080559;28;20021;-42
2023/08/07 04:16:56;;;;;;;4.35;1.92;;;14.20;99.90;;;;;;5078069;28;20498;-42
2023/08/07 04:19:24;;;;;;;4.00;1.80;;;14.10;99.90;;;;;;5082052;28;20028;-42
2023/08/07 04:21:49;;;;;;;5.85;2.13;;;14.20;99.90;;;;;;5076107;28;20027;-42
2023/08/07 04:24:15;;;;;;;3.03;1.70;;;14.20;99.90;;;;;;5082949;28;20054;-42
2023/08/07 04:26:41;;;;;;;4.97;2.00;;;14.20;99.90;;;;;;5074114;28;20042;-42
2023/08/07 04:29:07;;;;;;;3.33;1.77;;;14.10;99.90;;;;;;5083668;28;20076;-41
2023/08/07 04:31:36;;;;;;;5.70;1.83;;;14.10;99.90;;;;;;5073951;28;20036;-42
2023/08/07 04:34:01;;;;;;;4.00;1.77;;;14.10;99.90;;;;;;5085612;28;20028;-42
2023/08/07 04:36:27;;;;;;;2.33;1.70;;;14.10;99.90;;;;;;5073812;28;20027;-42
2023/08/07 04:38:53;;;;;;;5.43;1.77;;;14.20;99.90;;;;;;5085590;28;20456;-42
2023/08/07 04:41:22;;;;;;;4.00;1.95;;;14.20;99.90;;;;;;5072443;28;20487;-42
2023/08/07 04:43:48;;;;;;;4.63;1.90;;;14.20;99.90;;;;;;5085169;28;20105;-42
2023/08/07 04:46:14;;;;;;;4.25;2.00;;;14.20;99.90;;;;;;5073247;28;20036;-42
2023/08/07 04:48:40;;;;;;;4.47;1.90;;;14.20;99.90;;;;;;5084830;28;20052;-42
2023/08/07 04:51:06;;;;;;;4.00;1.73;;;14.20;99.90;;;;;;5075294;28;20044;-42
2023/08/07 04:53:31;;;;;;;4.63;2.40;;;14.20;99.90;;;;;;5082174;28;20024;-42
2023/08/07 04:55:59;;;;;;;2.53;1.48;;;14.20;99.90;;;;;;5079303;28;20028;-43
2023/08/07 04:58:25;;;;;;;5.03;2.30;;;14.20;99.90;;;;;;5079033;28;20020;-42
2023/08/07 05:01:00;;;;;;;3.60;2.00;;;14.20;99.90;;;;;;5081699;28;20082;-42
2023/08/07 05:03:48;;;;;;;3.22;2.03;;;14.20;99.90;;;;;;5078140;28;20027;-42
2023/08/07 05:06:14;;;;;;;5.15;1.90;;;14.20;99.90;;;;;;5070257;28;20399;-42
2023/08/07 05:08:39;;;;;;;6.97;2.55;;;14.20;99.90;;;;;;5078387;28;20028;-42
2023/08/07 05:11:05;;;;;;;5.88;2.03;;;14.20;99.90;;;;;;5082141;28;20479;-42
2023/08/07 05:13:30;;;;;;;6.40;2.10;;;14.20;99.90;;;;;;5075020;28;20360;-42
2023/08/07 05:15:59;;;;;;;3.50;2.10;;;14.30;99.90;;;;;;5083589;28;20917;-42
2023/08/07 05:18:25;;;;;;;6.13;2.97;;;14.30;99.90;;;;;;5073875;28;20020;-42
2023/08/07 05:20:50;;;;;;;6.78;2.70;;;14.30;99.90;;;;;;5082564;28;20465;-42
2023/08/07 05:23:16;;;;;;;5.70;2.15;;;14.30;99.90;;;;;;5073562;28;20081;-42
2023/08/07 05:25:45;;;;;;;5.95;2.35;;;14.30;99.90;;;;;;5085153;28;20024;-42
2023/08/07 05:28:11;;;;;;;8.48;2.40;;;14.30;99.90;;;;;;5076065;28;20051;-43
2023/08/07 05:30:36;;;;;;;5.88;2.40;;;14.40;99.90;;;;;;5064216;28;20523;-42
2023/08/07 05:33:02;;;;;;;4.65;2.40;;;14.40;99.90;;;;;;5075610;28;20031;-42
2023/08/07 05:35:28;;;;;;;6.35;2.05;;;14.40;99.90;;;;;;5064307;28;20041;-42
2023/08/07 05:37:53;;;;;;;6.18;2.30;;;14.40;99.90;;;;;;5075638;28;20035;-42
2023/08/07 05:40:19;;;;;;;4.40;2.22;;;14.40;99.90;;;;;;5064582;28;20443;-42
2023/08/07 05:42:44;;;;;;;6.60;2.40;;;14.50;99.90;;;;;;5072507;28;20020;-42
2023/08/07 05:45:10;;;;;;;5.18;2.22;;;14.50;99.90;;;;;;5069685;28;20111;-42
2023/08/07 05:47:36;;;;;;;4.88;2.15;;;14.50;99.90;;;;;;5078250;28;20031;-42
2023/08/07 05:50:02;;;;;;;5.30;1.98;;;14.50;99.90;;;;;;5077202;28;20024;-42
2023/08/07 05:52:27;;;;;;;4.93;2.33;;;14.60;99.90;;;;;;5081267;28;20040;-42
2023/08/07 05:54:53;;;;;;;4.63;2.20;;;14.60;99.90;;;;;;5073893;28;20031;-42
2023/08/07 05:57:18;;;;;;;6.03;2.45;;;14.70;99.90;;;;;;5082199;28;20024;-42
2023/08/07 05:59:44;;;;;;;7.28;2.53;;;14.70;99.90;;;;;;5073304;28;20023;-42
2023/08/07 06:02:28;;;;;;;6.60;2.20;;;14.70;99.90;;;;;;5081663;28;20019;-42
2023/08/07 06:04:54;;;;;;;6.00;2.80;;;14.70;99.90;;;;;;5072876;28;20134;-42
2023/08/07 06:07:19;;;;;;;4.18;2.15;;;14.80;99.90;;;;;;5082648;28;20157;-43
2023/08/07 06:09:45;;;;;;;6.25;2.88;;;14.80;99.90;;;;;;5075403;28;20028;-42
2023/08/07 06:12:10;;;;;;;8.23;2.90;;;14.80;99.90;;;;;;5063670;28;20491;-42
2023/08/07 06:14:43;;;;;;;5.68;2.58;;;14.80;99.90;;;;;;5076169;28;20713;-42
2023/08/07 06:17:08;;;;;;;7.45;3.03;;;14.70;99.90;;;;;;5062847;28;20113;-42
2023/08/07 06:19:40;;;;;;;6.82;2.60;;;14.70;99.90;;;;;;5076233;28;20024;-42
2023/08/07 06:22:06;;;;;;;5.83;2.23;;;14.70;99.90;;;;;;5064149;28;20104;-42
2023/08/07 06:24:31;;;;;;;7.43;2.70;;;14.70;99.90;;;;;;5075085;28;20475;-43
2023/08/07 06:26:57;;;;;;;4.18;2.33;;;14.70;99.90;;;;;;5065418;28;20545;-43
2023/08/07 06:29:23;;;;;;;7.13;2.75;;;14.70;99.90;;;;;;5072610;28;20027;-43
2023/08/07 06:31:48;;;;;;;7.55;2.80;;;14.70;99.90;;;;;;5067379;28;20395;-43
2023/08/07 06:34:14;;;;;;;6.82;2.92;;;14.80;99.90;;;;;;5069463;28;20160;-43
2023/08/07 06:36:39;;;;;;;7.28;2.75;;;14.80;99.90;;;;;;5069789;28;20033;-43
2023/08/07 06:39:05;;;;;;;3.97;2.38;;;14.80;99.90;;;;;;5066910;28;20111;-42
2023/08/07 06:41:30;;;;;;;7.90;2.67;;;14.80;99.90;;;;;;5074704;28;20040;-42
2023/08/07 06:43:56;;;;;;;7.45;2.70;;;14.90;99.90;;;;;;5069242;28;20044;-43
2023/08/07 06:46:26;;;;;;;6.53;2.55;;;15.00;99.90;;;;;;5076870;28;20023;-42
2023/08/07 06:48:52;;;;;;;5.63;2.58;;;15.10;99.90;;;;;;5068507;28;20060;-43
2023/08/07 06:51:17;;;;;;;6.13;2.22;;;15.20;99.90;;;;;;5077692;28;20037;-43
2023/08/07 06:53:43;;;;;;;5.57;2.40;;;15.30;99.90;;;;;;5067561;28;20811;-43
2023/08/07 06:56:08;;;;;;;7.70;2.90;;;15.30;99.90;;;;;;5082083;28;20036;-42
2023/08/07 06:58:34;;;;;;;7.43;2.25;;;15.40;99.90;;;;;;5067714;28;20020;-43
2023/08/07 07:00:59;;;;;;;7.78;2.70;;;15.40;99.90;;;;;;5079314;28;20032;-42
2023/08/07 07:03:25;;;;;;;4.68;2.67;;;15.60;99.90;;;;;;5067501;28;20025;-42
2023/08/07 07:05:51;;;;;;;6.05;2.20;;;15.70;99.90;;;;;;5077973;28;20016;-43
2023/08/07 07:08:16;;;;;;;3.80;1.75;;;15.70;99.90;;;;;;5068120;28;20028;-42
2023/08/07 07:10:42;;;;;;;5.63;2.53;;;15.80;99.90;;;;;;5075091;28;20063;-43
2023/08/07 07:13:09;;;;;;;8.82;3.20;;;15.80;99.90;;;;;;5070542;28;20083;-42
2023/08/07 07:15:37;;;;;;;6.57;2.42;;;15.90;99.90;;;;;;5073106;28;20047;-43
2023/08/07 07:18:03;;;;;;;6.10;2.67;;;15.90;99.90;;;;;;5072587;28;20036;-43
2023/08/07 07:20:28;;;;;;;7.15;2.40;;;15.90;99.90;;;;;;5070359;28;20017;-42
2023/08/07 07:22:54;;;;;;;4.63;2.13;;;15.90;99.90;;;;;;5075773;28;20366;-43
2023/08/07 07:25:19;;;;;;;5.53;2.17;;;16.00;99.90;;;;;;5068295;28;20028;-46
2023/08/07 07:27:45;;;;;;;7.05;2.45;;;16.00;99.90;;;;;;5077904;28;20464;-42
2023/08/07 07:30:11;;;;;;;5.20;2.20;;;16.10;99.90;;;;;;5067592;28;20028;-43
2023/08/07 07:32:36;;;;;;;4.72;2.30;;;16.10;99.90;;;;;;5077999;28;20083;-43
2023/08/07 07:35:03;;;;;;;5.45;2.22;;;16.10;99.90;;;;;;5067136;28;20142;-42
2023/08/07 07:37:30;;;;;;;9.18;3.03;;;16.10;99.90;;;;;;5075325;28;20467;-42
2023/08/07 07:39:56;;;;;;;8.50;2.53;;;16.00;99.90;;;;;;5086874;28;20503;-42
2023/08/07 07:42:22;;;;;;;6.32;2.58;;;15.90;99.90;;;;;;5072939;28;20113;-42
2023/08/07 07:44:47;;;;;;;6.13;2.63;;;15.90;99.90;;;;;;5086694;28;20082;-42
2023/08/07 07:47:13;;;;;;;6.85;2.80;;;16.00;99.90;;;;;;5079963;28;20116;-42
2023/08/07 07:49:38;;;;;;;8.43;2.60;;;16.10;99.90;;;;;;5067943;28;20094;-43
2023/08/07 07:52:05;;;;;;;8.93;3.10;;;16.20;99.90;;;;;;5072723;28;20050;-43
2023/08/07 07:54:31;;;;;;;6.32;2.58;;;16.30;99.90;;;;;;5069549;28;20467;-42
2023/08/07 07:56:56;;;;;;;7.82;2.67;;;16.40;99.90;;;;;;5072127;28;20072;-42
2023/08/07 07:59:22;;;;;;;11.13;2.97;;;16.40;99.90;;;;;;5072321;28;20025;-42
2023/08/07 08:01:47;;;;;;;7.85;2.55;;;16.40;99.90;;;;;;5069162;28;20033;-43
2023/08/07 08:04:13;;;;;;;6.82;3.17;;;16.50;99.90;;;;;;5075749;28;20649;-43
2023/08/07 08:06:40;;;;;;;7.95;2.90;;;16.40;99.90;;;;;;5067560;28;20019;-43
2023/08/07 08:09:09;;;;;;;6.85;3.45;;;16.30;99.90;;;;;;5076755;28;20063;-42
2023/08/07 08:11:34;;;;;;;7.05;2.60;;;16.20;99.90;;;;;;5067168;28;21487;-42
2023/08/07 08:14:00;;;;;;;7.82;2.90;;;16.20;99.90;;;;;;5076839;28;20059;-42
2023/08/07 08:16:25;;;;;;;7.78;2.92;;;16.20;99.90;;;;;;5065846;28;20024;-43
2023/08/07 08:18:51;;;;;;;7.32;3.00;;;16.10;99.90;;;;;;5078199;28;20448;-42
2023/08/07 08:21:16;;;;;;;5.30;2.50;;;16.00;99.90;;;;;;5065703;28;20826;-43
2023/08/07 08:23:45;;;;;;;9.48;2.75;;;15.90;99.90;;;;;;5077626;28;20486;-43
2023/08/07 08:26:10;;;;;;;6.07;2.70;;;16.00;99.90;;;;;;5065259;28;20036;-43
2023/08/07 08:28:36;;;;;;;6.95;2.88;;;15.90;99.90;;;;;;5076685;28;20054;-42
2023/08/07 08:31:01;;;;;;;7.47;3.05;;;16.00;99.90;;;;;;5066168;28;20036;-42
2023/08/07 08:33:27;;;;;;;6.95;2.90;;;16.00;99.90;;;;;;5074290;28;20019;-41
2023/08/07 08:35:52;;;;;;;10.82;3.47;;;16.10;99.90;;;;;;5068949;28;20131;-41
2023/08/07 08:38:19;;;;;;;8.57;3.10;;;16.20;99.90;;;;;;5071359;28;20032;-41
2023/08/07 08:40:45;;;;;;;7.45;2.75;;;16.40;99.90;;;;;;5072678;28;20033;-41
2023/08/07 08:43:13;;;;;;;13.32;3.13;;;16.50;99.90;;;;;;5067958;28;20024;-42
2023/08/07 08:45:40;;;;;;;7.85;3.05;;;16.60;99.90;;;;;;5077759;28;20181;-42
2023/08/07 08:48:09;;;;;;;7.07;2.50;;;16.50;99.90;;;;;;5084247;28;20056;-42
2023/08/07 08:50:35;;;;;;;6.95;2.95;;;16.40;99.90;;;;;;5074346;28;20022;-42
2023/08/07 08:53:03;;;;;;;6.22;2.55;;;16.30;99.90;;;;;;5083390;28;20016;-42
2023/08/07 08:55:29;;;;;;;6.50;2.83;;;16.20;99.90;;;;;;5074148;28;20032;-42
2023/08/07 08:57:55;;;;;;;10.05;3.20;;;16.10;99.90;;;;;;5084161;28;20027;-42
2023/08/07 09:00:23;;;;;;;8.85;3.03;;;16.10;99.90;;;;;;5072868;28;20374;-42
2023/08/07 09:02:49;;;;;;;9.50;2.75;;;16.20;99.90;;;;;;5085629;28;20028;-42
2023/08/07 09:05:17;;;;;;;9.63;3.17;;;16.20;99.90;;;;;;5070594;28;20062;-42
2023/08/07 09:07:43;;;;;;;8.48;3.08;;;16.20;99.90;;;;;;5085425;28;20024;-42
2023/08/07 09:10:11;;;;;;;6.38;2.90;;;16.10;99.90;;;;;;5072060;28;20032;-42
2023/08/07 09:12:41;;;;;;;8.27;2.92;;;16.10;99.90;;;;;;5064229;28;20067;-41
2023/08/07 09:15:09;;;;;;;7.15;2.78;;;16.10;99.90;;;;;;5074919;28;20074;-43
2023/08/07 09:17:40;;;;;;;7.20;2.72;;;16.10;99.90;;;;;;5066460;28;20439;-43
2023/08/07 09:20:11;;;;;;;5.68;2.70;;;16.10;99.90;;;;;;5072789;28;20028;-42
2023/08/07 09:22:36;;;;;;;9.80;3.03;;;16.10;99.90;;;;;;5068015;28;20335;-43
2023/08/07 09:25:03;;;;;;;5.32;2.58;;;16.10;99.90;;;;;;5066682;28;20535;-42
2023/08/07 09:27:29;;;;;;;8.52;2.83;;;16.20;99.90;;;;;;5077230;28;20064;-42
2023/08/07 09:29:56;;;;;;;7.63;2.80;;;16.40;99.90;;;;;;5071800;28;20111;-42
2023/08/07 09:32:23;;;;;;;8.98;2.67;;;16.70;99.90;;;;;;5077067;28;20036;-44
2023/08/07 09:34:50;;;;;;;9.73;2.78;;;16.90;99.90;;;;;;5078469;28;20322;-43
2023/08/07 09:37:16;;;;;;;7.00;2.40;;;17.00;99.90;;;;;;5074396;28;20127;-44
2023/08/07 09:39:45;;;;;;;5.63;2.22;;;17.00;99.90;;;;;;5065534;28;20363;-42
2023/08/07 09:42:18;;;;;;;4.63;2.30;;;17.10;99.90;;;;;;5079856;28;20028;-42
2023/08/07 09:44:45;;;;;;;7.20;2.60;;;17.10;99.90;;;;;;5082552;28;20064;-42
2023/08/07 09:47:18;;;;;;;8.05;2.60;;;17.10;99.90;;;;;;5066089;28;20028;-42
2023/08/07 09:49:44;;;;;;;6.93;2.25;;;17.20;99.90;;;;;;5064093;28;20491;-42
2023/08/07 09:52:18;;;;;;;6.60;2.17;;;17.30;99.90;;;;;;5074243;28;20048;-42
2023/08/07 09:54:43;;;;;;;7.25;2.45;;;17.30;99.90;;;;;;5073840;28;20027;-42
2023/08/07 09:57:09;;;;;;;5.60;2.30;;;17.30;99.90;;;;;;5068490;28;20020;-42
2023/08/07 09:59:35;;;;;;;8.30;2.60;;;17.20;99.90;;;;;;5084915;28;20028;-42
2023/08/07 10:02:02;;;;;;;7.55;2.78;;;17.20;99.90;;;;;;5077281;28;20033;-42
2023/08/07 10:04:29;;;;;;;3.75;2.05;;;17.10;99.90;;;;;;5085025;28;20129;-42
2023/08/07 10:06:59;;;;;;;5.88;2.45;;;17.10;99.90;;;;;;5073109;28;20029;-42
2023/08/07 10:09:26;;;;;;;7.18;2.60;;;17.00;99.90;;;;;;5083054;28;20027;-42
2023/08/07 10:11:52;;;;;;;8.88;2.72;;;17.00;99.90;;;;;;5074681;28;20048;-42
2023/08/07 10:14:18;;;;;;;4.25;1.90;;;17.10;99.90;;;;;;5080362;28;20028;-43
2023/08/07 10:16:48;;;;;;;6.10;2.15;;;17.40;99.90;;;;;;5076804;28;20213;-42
2023/08/07 10:19:14;;;;;;;4.95;2.15;;;17.60;99.90;;;;;;5078884;28;20032;-42
2023/08/07 10:21:40;;;;;;;3.47;1.65;;;17.80;99.90;;;;;;5078880;28;20029;-42
2023/08/07 10:24:07;;;;;;;6.05;2.15;;;17.80;99.90;;;;;;5076592;28;20077;-42
2023/08/07 10:26:39;;;;;;;4.75;2.25;;;18.00;99.90;;;;;;5068876;28;20418;-43
2023/08/07 10:29:10;;;;;;;9.07;2.60;;;18.00;99.90;;;;;;5071799;28;20028;-42
2023/08/07 10:31:38;;;;;;;6.65;2.20;;;18.00;99.90;;;;;;5065552;28;20333;-42
2023/08/07 10:34:04;;;;;;;5.70;2.20;;;17.90;99.90;;;;;;5072797;28;20690;-42
2023/08/07 10:36:38;;;;;;;7.35;2.60;;;17.80;99.90;;;;;;5081814;28;20059;-44
2023/08/07 10:39:12;;;;;;;5.43;2.08;;;17.80;99.90;;;;;;5072303;28;20499;-43
2023/08/07 10:41:45;;;;;;;5.53;2.10;;;17.70;99.90;;;;;;5083393;28;20086;-42
2023/08/07 10:44:33;;;;;;;5.05;2.42;;;17.70;99.90;;;;;;5072047;28;20454;-42
2023/08/07 10:47:06;;;;;;;8.95;2.58;;;17.50;99.90;;;;;;5072588;28;20031;-42
2023/08/07 10:49:34;;;;;;;5.90;2.47;;;17.40;99.90;;;;;;5074643;28;20624;-43
2023/08/07 10:52:17;;;;;;;5.30;2.33;;;17.50;99.90;;;;;;5064667;28;20033;-42
2023/08/07 10:54:49;;;;;;;;;;;17.60;99.90;;;;;;5075668;28;20028;-43
2023/08/07 10:57:16;;;;;;;4.45;1.83;;;17.70;99.90;;;;;;5064043;28;19915;-43
2023/08/07 10:59:57;;;;;;;7.80;2.25;;;17.60;99.90;;;;;;5074222;28;20029;-41
2023/08/07 11:02:29;;;;;;;6.88;2.05;;;17.70;99.90;;;;;;5065070;28;20034;-42
2023/08/07 11:04:55;;;;;;;3.78;1.80;;;17.60;99.90;;;;;;5074275;28;20029;-43
2023/08/07 11:07:29;;;;;;;4.75;2.10;;;17.50;99.90;;;;;;5065454;28;20044;-44
2023/08/07 11:09:58;;;;;;;4.30;2.00;;;17.50;99.90;;;;;;5074639;28;20024;-43
2023/08/07 11:12:26;;;;;;;3.88;2.30;;;17.50;99.90;;;;;;5063425;28;20094;-42
2023/08/07 11:14:57;;;;;;;4.72;2.40;;;17.50;99.90;;;;;;5075813;28;20546;-43
2023/08/07 11:17:31;;;;;;;5.55;2.10;;;17.60;99.90;;;;;;5063501;28;20796;-43
2023/08/07 11:19:57;;;;;;;5.50;2.00;;;17.60;99.90;;;;;;5074623;28;20024;-43
2023/08/07 11:22:23;;;;;;;4.40;1.80;;;17.70;99.90;;;;;;5063455;28;20028;-43
2023/08/07 11:24:50;;;;;;;6.82;2.13;;;17.80;99.90;;;;;;5075318;28;20032;-43
2023/08/07 11:27:16;;;;;;;5.32;2.35;;;17.90;99.90;;;;;;5065155;28;20058;-43
2023/08/07 11:29:41;;;;;;;7.68;2.20;;;18.10;99.90;;;;;;5078364;28;20120;-43
2023/08/07 11:32:08;;;;;;;6.45;2.10;;;18.10;99.90;;;;;;5067210;28;20036;-43
2023/08/07 11:34:34;;;;;;;5.30;1.92;;;18.20;99.90;;;;;;5075804;28;20016;-43
2023/08/07 11:37:00;;;;;;;4.78;1.92;;;18.30;99.90;;;;;;5071256;28;20024;-44
2023/08/07 11:39:26;;;;;;;4.70;2.05;;;18.30;99.90;;;;;;5072791;28;20098;-44
2023/08/07 11:41:55;;;;;;;5.53;2.30;;;18.30;99.90;;;;;;5072993;28;20111;-44
2023/08/07 11:44:22;;;;;;;4.65;2.00;;;18.40;99.90;;;;;;5070894;28;20016;-44
2023/08/07 11:46:47;;;;;;;5.20;2.00;;;18.50;99.90;;;;;;5083709;28;20024;-43
2023/08/07 11:49:13;;;;;;;4.78;2.15;;;18.60;99.90;;;;;;5084235;28;20051;-43
2023/08/07 11:51:39;;;;;;;4.57;1.98;;;18.60;99.90;;;;;;5076140;28;20460;-42
2023/08/07 11:54:05;;;;;;;7.60;2.00;;;18.60;99.90;;;;;;5084054;28;20089;-42
2023/08/07 11:56:31;;;;;;;7.72;2.13;;;18.50;99.90;;;;;;5076001;28;20035;-43
2023/08/07 11:58:57;;;;;;;4.53;1.95;;;18.30;99.90;;;;;;5086651;28;20012;-43
2023/08/07 12:01:25;;;;;;;5.35;1.88;;;18.30;99.90;;;;;;5073645;28;20376;-43
2023/08/07 12:04:10;;;;;;;4.53;2.20;;;18.30;99.90;;;;;;5086512;28;20028;-43
2023/08/07 12:06:39;;;;;;;5.68;2.03;;;18.40;99.90;;;;;;5074998;28;20059;-43
2023/08/07 12:09:08;;;;;;;6.68;2.10;;;18.40;99.90;;;;;;5077197;28;20425;-43
2023/08/07 12:11:35;;;;;;;4.45;2.03;;;18.30;99.90;;;;;;5074506;28;20047;-42
2023/08/07 12:14:03;;;;;;;5.20;2.10;;;18.30;99.90;;;;;;5077231;28;20169;-42
2023/08/07 12:16:33;;;;;;;4.72;1.98;;;18.30;99.90;;;;;;5073381;28;20060;-42
2023/08/07 12:18:59;;;;;;;4.00;1.92;;;18.40;99.90;;;;;;5086023;28;20024;-43
2023/08/07 12:21:26;;;;;;;4.95;1.92;;;18.50;99.90;;;;;;5074521;28;20035;-43
2023/08/07 12:23:55;;;;;;;3.63;1.73;;;18.50;99.90;;;;;;5084605;28;20073;-42
2023/08/07 12:26:20;;;;;;;3.83;1.70;;;18.60;99.90;;;;;;5076550;28;20130;-43
2023/08/07 12:28:46;;;;;;;4.70;1.90;;;18.70;99.90;;;;;;5082563;28;20415;-42
2023/08/07 12:31:12;;;;;;;3.97;1.77;;;18.70;99.90;;;;;;5079169;28;20486;-44
2023/08/07 12:33:43;;;;;;;5.82;2.03;;;18.80;99.90;;;;;;5080243;28;20024;-42
2023/08/07 12:36:10;;;;;;;4.68;1.77;;;18.90;99.90;;;;;;5079768;28;20016;-42
2023/08/07 12:38:35;;;;;;;3.92;2.03;;;18.90;99.90;;;;;;5077904;28;20039;-42
2023/08/07 12:41:03;;;;;;;3.75;1.90;;;18.90;99.90;;;;;;5083608;28;20788;-43
2023/08/07 12:43:28;;;;;;;6.18;2.55;;;18.90;99.90;;;;;;5074774;28;20028;-41
2023/08/07 12:45:54;;;;;;;3.80;1.77;;;19.00;99.90;;;;;;5081970;28;20052;-42
2023/08/07 12:48:20;;;;;;;5.78;2.42;;;19.00;99.90;;;;;;5076289;28;20052;-42